sensor_id;sensor_type;location;lat;lon;timestamp;P1;durP1;ratioP1;P2;durP2;ratioP2
12110;SDS011;6119;52.372;8.990;2024-03-02T00:02:18;6.97;;;5.27;;
12110;SDS011;6119;52.372;8.990;2024-03-02T00:05:05;8.67;;;5.47;;
12110;SDS011;6119;52.372;8.990;2024-03-02T00:07:53;7.30;;;4.77;;
12110;SDS011;6119;52.372;8.990;2024-03-02T00:10:43;6.50;;;4.80;;
12110;SDS011;6119;52.372;8.990;2024-03-02T00:13:30;6.47;;;5.07;;
12110;SDS011;6119;52.372;8.990;2024-03-02T00:16:17;5.93;;;4.83;;
12110;SDS011;6119;52.372;8.990;2024-03-02T00:19:05;7.57;;;5.30;;
12110;SDS011;6119;52.372;8.990;2024-03-02T00:21:53;6.77;;;5.10;;
12110;SDS011;6119;52.372;8.990;2024-03-02T00:24:40;6.13;;;5.40;;
12110;SDS011;6119;52.372;8.990;2024-03-02T00:27:28;8.47;;;5.53;;
12110;SDS011;6119;52.372;8.990;2024-03-02T00:30:27;7.23;;;5.53;;
12110;SDS011;6119;52.372;8.990;2024-03-02T00:33:38;8.17;;;5.70;;
12110;SDS011;6119;52.372;8.990;2024-03-02T00:36:27;12.03;;;6.97;;
12110;SDS011;6119;52.372;8.990;2024-03-02T00:39:14;8.97;;;6.73;;
12110;SDS011;6119;52.372;8.990;2024-03-02T00:42:03;10.10;;;7.37;;
12110;SDS011;6119;52.372;8.990;2024-03-02T00:44:52;11.30;;;7.63;;
12110;SDS011;6119;52.372;8.990;2024-03-02T00:47:39;12.10;;;7.40;;
12110;SDS011;6119;52.372;8.990;2024-03-02T00:50:25;9.00;;;6.80;;
12110;SDS011;6119;52.372;8.990;2024-03-02T00:53:15;12.00;;;7.80;;
12110;SDS011;6119;52.372;8.990;2024-03-02T00:56:05;11.53;;;7.50;;
12110;SDS011;6119;52.372;8.990;2024-03-02T00:58:56;9.07;;;6.20;;
12110;SDS011;6119;52.372;8.990;2024-03-02T01:01:45;9.23;;;6.40;;
12110;SDS011;6119;52.372;8.990;2024-03-02T01:04:34;8.57;;;6.63;;
12110;SDS011;6119;52.372;8.990;2024-03-02T01:07:20;8.03;;;6.50;;
12110;SDS011;6119;52.372;8.990;2024-03-02T01:10:07;10.07;;;6.60;;
12110;SDS011;6119;52.372;8.990;2024-03-02T01:12:54;7.63;;;6.07;;
12110;SDS011;6119;52.372;8.990;2024-03-02T01:15:41;9.47;;;6.70;;
12110;SDS011;6119;52.372;8.990;2024-03-02T01:18:30;9.00;;;6.20;;
12110;SDS011;6119;52.372;8.990;2024-03-02T01:21:17;8.23;;;5.83;;
12110;SDS011;6119;52.372;8.990;2024-03-02T01:24:03;9.37;;;6.30;;
12110;SDS011;6119;52.372;8.990;2024-03-02T01:26:50;7.70;;;6.17;;
12110;SDS011;6119;52.372;8.990;2024-03-02T01:29:37;10.93;;;7.03;;
12110;SDS011;6119;52.372;8.990;2024-03-02T01:32:24;7.57;;;6.20;;
12110;SDS011;6119;52.372;8.990;2024-03-02T01:35:12;7.97;;;6.00;;
12110;SDS011;6119;52.372;8.990;2024-03-02T01:37:59;9.97;;;6.20;;
12110;SDS011;6119;52.372;8.990;2024-03-02T01:40:46;8.43;;;5.87;;
12110;SDS011;6119;52.372;8.990;2024-03-02T01:43:32;8.63;;;5.87;;
12110;SDS011;6119;52.372;8.990;2024-03-02T01:46:23;8.60;;;5.27;;
12110;SDS011;6119;52.372;8.990;2024-03-02T01:49:10;7.20;;;5.60;;
12110;SDS011;6119;52.372;8.990;2024-03-02T01:51:58;6.93;;;5.57;;
12110;SDS011;6119;52.372;8.990;2024-03-02T01:54:45;7.80;;;5.63;;
12110;SDS011;6119;52.372;8.990;2024-03-02T01:57:31;7.07;;;5.27;;
12110;SDS011;6119;52.372;8.990;2024-03-02T02:00:19;7.33;;;5.50;;
12110;SDS011;6119;52.372;8.990;2024-03-02T02:03:06;7.23;;;5.60;;
12110;SDS011;6119;52.372;8.990;2024-03-02T02:05:53;5.73;;;5.13;;
12110;SDS011;6119;52.372;8.990;2024-03-02T02:08:41;8.33;;;5.63;;
12110;SDS011;6119;52.372;8.990;2024-03-02T02:11:28;8.10;;;5.40;;
12110;SDS011;6119;52.372;8.990;2024-03-02T02:14:15;7.33;;;5.27;;
12110;SDS011;6119;52.372;8.990;2024-03-02T02:17:01;8.00;;;5.53;;
12110;SDS011;6119;52.372;8.990;2024-03-02T02:19:47;6.40;;;4.90;;
12110;SDS011;6119;52.372;8.990;2024-03-02T02:22:36;6.90;;;5.00;;
12110;SDS011;6119;52.372;8.990;2024-03-02T02:25:22;6.17;;;5.07;;
12110;SDS011;6119;52.372;8.990;2024-03-02T02:28:09;6.80;;;5.47;;
12110;SDS011;6119;52.372;8.990;2024-03-02T02:30:55;6.03;;;5.23;;
12110;SDS011;6119;52.372;8.990;2024-03-02T02:33:42;6.17;;;5.03;;
12110;SDS011;6119;52.372;8.990;2024-03-02T02:36:29;6.93;;;5.33;;
12110;SDS011;6119;52.372;8.990;2024-03-02T02:39:17;6.37;;;5.43;;
12110;SDS011;6119;52.372;8.990;2024-03-02T02:42:07;6.53;;;5.30;;
12110;SDS011;6119;52.372;8.990;2024-03-02T02:44:53;7.37;;;5.60;;
12110;SDS011;6119;52.372;8.990;2024-03-02T02:47:40;6.93;;;5.20;;
12110;SDS011;6119;52.372;8.990;2024-03-02T02:50:27;7.57;;;5.50;;
12110;SDS011;6119;52.372;8.990;2024-03-02T02:53:14;6.70;;;4.90;;
12110;SDS011;6119;52.372;8.990;2024-03-02T02:56:02;6.87;;;5.47;;
12110;SDS011;6119;52.372;8.990;2024-03-02T02:58:49;8.13;;;5.37;;
12110;SDS011;6119;52.372;8.990;2024-03-02T03:01:36;6.77;;;5.33;;
12110;SDS011;6119;52.372;8.990;2024-03-02T03:04:23;7.43;;;5.27;;
12110;SDS011;6119;52.372;8.990;2024-03-02T03:07:09;6.57;;;5.00;;
12110;SDS011;6119;52.372;8.990;2024-03-02T03:09:56;6.93;;;5.23;;
12110;SDS011;6119;52.372;8.990;2024-03-02T03:12:44;7.07;;;4.73;;
12110;SDS011;6119;52.372;8.990;2024-03-02T03:15:31;7.83;;;5.90;;
12110;SDS011;6119;52.372;8.990;2024-03-02T03:18:18;5.97;;;4.73;;
12110;SDS011;6119;52.372;8.990;2024-03-02T03:21:05;8.33;;;5.13;;
12110;SDS011;6119;52.372;8.990;2024-03-02T03:23:51;6.30;;;4.53;;
12110;SDS011;6119;52.372;8.990;2024-03-02T03:26:38;6.83;;;4.73;;
12110;SDS011;6119;52.372;8.990;2024-03-02T03:29:26;7.57;;;5.23;;
12110;SDS011;6119;52.372;8.990;2024-03-02T03:32:13;7.00;;;5.30;;
12110;SDS011;6119;52.372;8.990;2024-03-02T03:35:01;7.53;;;5.23;;
12110;SDS011;6119;52.372;8.990;2024-03-02T03:37:49;7.97;;;5.63;;
12110;SDS011;6119;52.372;8.990;2024-03-02T03:40:35;8.43;;;5.90;;
12110;SDS011;6119;52.372;8.990;2024-03-02T03:43:22;9.27;;;5.77;;
12110;SDS011;6119;52.372;8.990;2024-03-02T03:46:11;7.43;;;4.90;;
12110;SDS011;6119;52.372;8.990;2024-03-02T03:48:58;7.70;;;6.00;;
12110;SDS011;6119;52.372;8.990;2024-03-02T03:51:45;10.00;;;6.33;;
12110;SDS011;6119;52.372;8.990;2024-03-02T03:54:32;7.53;;;5.70;;
12110;SDS011;6119;52.372;8.990;2024-03-02T03:57:19;7.60;;;5.60;;
12110;SDS011;6119;52.372;8.990;2024-03-02T04:00:06;7.27;;;5.83;;
12110;SDS011;6119;52.372;8.990;2024-03-02T04:02:56;8.17;;;5.57;;
12110;SDS011;6119;52.372;8.990;2024-03-02T04:05:43;9.57;;;6.23;;
12110;SDS011;6119;52.372;8.990;2024-03-02T04:08:30;8.47;;;6.63;;
12110;SDS011;6119;52.372;8.990;2024-03-02T04:11:16;8.43;;;5.90;;
12110;SDS011;6119;52.372;8.990;2024-03-02T04:14:03;7.90;;;6.10;;
12110;SDS011;6119;52.372;8.990;2024-03-02T04:16:51;7.73;;;6.33;;
12110;SDS011;6119;52.372;8.990;2024-03-02T04:19:39;13.33;;;6.80;;
12110;SDS011;6119;52.372;8.990;2024-03-02T04:22:25;9.60;;;7.07;;
12110;SDS011;6119;52.372;8.990;2024-03-02T04:25:12;9.13;;;6.77;;
12110;SDS011;6119;52.372;8.990;2024-03-02T04:27:59;11.80;;;7.97;;
12110;SDS011;6119;52.372;8.990;2024-03-02T04:30:46;11.13;;;7.40;;
12110;SDS011;6119;52.372;8.990;2024-03-02T04:33:33;10.03;;;7.03;;
12110;SDS011;6119;52.372;8.990;2024-03-02T04:36:21;10.77;;;7.83;;
12110;SDS011;6119;52.372;8.990;2024-03-02T04:39:09;9.43;;;7.13;;
12110;SDS011;6119;52.372;8.990;2024-03-02T04:41:55;10.27;;;7.63;;
12110;SDS011;6119;52.372;8.990;2024-03-02T04:44:43;10.00;;;7.63;;
12110;SDS011;6119;52.372;8.990;2024-03-02T04:47:29;10.30;;;7.17;;
12110;SDS011;6119;52.372;8.990;2024-03-02T04:50:16;9.33;;;6.73;;
12110;SDS011;6119;52.372;8.990;2024-03-02T04:53:05;10.70;;;7.73;;
12110;SDS011;6119;52.372;8.990;2024-03-02T04:55:53;11.47;;;7.77;;
12110;SDS011;6119;52.372;8.990;2024-03-02T04:59:16;11.67;;;8.10;;
12110;SDS011;6119;52.372;8.990;2024-03-02T05:02:03;12.53;;;7.93;;
12110;SDS011;6119;52.372;8.990;2024-03-02T05:04:49;11.37;;;7.70;;
12110;SDS011;6119;52.372;8.990;2024-03-02T05:07:36;11.53;;;8.30;;
12110;SDS011;6119;52.372;8.990;2024-03-02T05:10:24;9.90;;;7.73;;
12110;SDS011;6119;52.372;8.990;2024-03-02T05:13:11;11.47;;;7.73;;
12110;SDS011;6119;52.372;8.990;2024-03-02T05:15:57;12.47;;;8.57;;
12110;SDS011;6119;52.372;8.990;2024-03-02T05:18:44;11.20;;;7.43;;
12110;SDS011;6119;52.372;8.990;2024-03-02T05:21:31;13.67;;;8.43;;
12110;SDS011;6119;52.372;8.990;2024-03-02T05:24:18;11.73;;;8.93;;
12110;SDS011;6119;52.372;8.990;2024-03-02T05:27:06;11.97;;;8.23;;
12110;SDS011;6119;52.372;8.990;2024-03-02T05:29:53;12.90;;;9.07;;
12110;SDS011;6119;52.372;8.990;2024-03-02T05:32:40;12.07;;;8.53;;
12110;SDS011;6119;52.372;8.990;2024-03-02T05:35:27;14.53;;;8.90;;
12110;SDS011;6119;52.372;8.990;2024-03-02T05:38:13;13.73;;;8.23;;
12110;SDS011;6119;52.372;8.990;2024-03-02T05:41:00;11.77;;;8.63;;
12110;SDS011;6119;52.372;8.990;2024-03-02T05:43:48;13.23;;;8.83;;
12110;SDS011;6119;52.372;8.990;2024-03-02T05:46:35;14.70;;;8.80;;
12110;SDS011;6119;52.372;8.990;2024-03-02T05:49:25;14.13;;;9.57;;
12110;SDS011;6119;52.372;8.990;2024-03-02T05:52:11;13.83;;;8.47;;
12110;SDS011;6119;52.372;8.990;2024-03-02T05:54:58;15.80;;;8.43;;
12110;SDS011;6119;52.372;8.990;2024-03-02T05:57:45;13.43;;;8.87;;
12110;SDS011;6119;52.372;8.990;2024-03-02T06:00:45;13.20;;;8.33;;
12110;SDS011;6119;52.372;8.990;2024-03-02T06:03:32;12.80;;;8.40;;
12110;SDS011;6119;52.372;8.990;2024-03-02T06:06:18;16.03;;;8.63;;
12110;SDS011;6119;52.372;8.990;2024-03-02T06:09:06;13.87;;;9.00;;
12110;SDS011;6119;52.372;8.990;2024-03-02T06:11:53;12.63;;;8.47;;
12110;SDS011;6119;52.372;8.990;2024-03-02T06:14:39;13.07;;;8.73;;
12110;SDS011;6119;52.372;8.990;2024-03-02T06:17:28;11.97;;;8.67;;
12110;SDS011;6119;52.372;8.990;2024-03-02T06:20:15;13.50;;;8.80;;
12110;SDS011;6119;52.372;8.990;2024-03-02T06:23:01;12.20;;;8.30;;
12110;SDS011;6119;52.372;8.990;2024-03-02T06:25:48;15.73;;;9.40;;
12110;SDS011;6119;52.372;8.990;2024-03-02T06:28:34;14.33;;;9.30;;
12110;SDS011;6119;52.372;8.990;2024-03-02T06:31:21;12.97;;;8.77;;
12110;SDS011;6119;52.372;8.990;2024-03-02T06:34:09;14.53;;;8.73;;
12110;SDS011;6119;52.372;8.990;2024-03-02T06:36:56;14.83;;;9.70;;
12110;SDS011;6119;52.372;8.990;2024-03-02T06:39:43;14.33;;;9.47;;
12110;SDS011;6119;52.372;8.990;2024-03-02T06:42:29;15.73;;;9.83;;
12110;SDS011;6119;52.372;8.990;2024-03-02T06:45:18;17.03;;;10.50;;
12110;SDS011;6119;52.372;8.990;2024-03-02T06:48:05;15.27;;;9.63;;
12110;SDS011;6119;52.372;8.990;2024-03-02T06:50:54;15.53;;;9.87;;
12110;SDS011;6119;52.372;8.990;2024-03-02T06:53:42;13.83;;;10.00;;
12110;SDS011;6119;52.372;8.990;2024-03-02T06:56:28;15.53;;;9.63;;
12110;SDS011;6119;52.372;8.990;2024-03-02T06:59:16;16.37;;;10.13;;
12110;SDS011;6119;52.372;8.990;2024-03-02T07:02:02;17.67;;;9.80;;
12110;SDS011;6119;52.372;8.990;2024-03-02T07:04:49;16.17;;;9.60;;
12110;SDS011;6119;52.372;8.990;2024-03-02T07:07:38;14.40;;;9.60;;
12110;SDS011;6119;52.372;8.990;2024-03-02T07:10:25;17.93;;;9.73;;
12110;SDS011;6119;52.372;8.990;2024-03-02T07:13:11;14.97;;;8.70;;
12110;SDS011;6119;52.372;8.990;2024-03-02T07:15:58;13.67;;;9.67;;
12110;SDS011;6119;52.372;8.990;2024-03-02T07:19:02;16.20;;;9.50;;
12110;SDS011;6119;52.372;8.990;2024-03-02T07:21:49;15.27;;;9.70;;
12110;SDS011;6119;52.372;8.990;2024-03-02T07:24:40;14.13;;;9.10;;
12110;SDS011;6119;52.372;8.990;2024-03-02T07:27:28;15.97;;;9.30;;
12110;SDS011;6119;52.372;8.990;2024-03-02T07:30:14;14.40;;;9.53;;
12110;SDS011;6119;52.372;8.990;2024-03-02T07:33:02;14.57;;;8.87;;
12110;SDS011;6119;52.372;8.990;2024-03-02T07:35:49;13.93;;;9.70;;
12110;SDS011;6119;52.372;8.990;2024-03-02T07:38:36;16.27;;;9.07;;
12110;SDS011;6119;52.372;8.990;2024-03-02T07:41:24;14.27;;;9.23;;
12110;SDS011;6119;52.372;8.990;2024-03-02T07:44:11;13.67;;;9.07;;
12110;SDS011;6119;52.372;8.990;2024-03-02T07:46:59;12.03;;;8.80;;
12110;SDS011;6119;52.372;8.990;2024-03-02T07:49:46;13.90;;;9.10;;
12110;SDS011;6119;52.372;8.990;2024-03-02T07:52:32;13.87;;;9.07;;
12110;SDS011;6119;52.372;8.990;2024-03-02T07:55:19;14.07;;;9.03;;
12110;SDS011;6119;52.372;8.990;2024-03-02T07:58:07;12.50;;;9.33;;
12110;SDS011;6119;52.372;8.990;2024-03-02T08:00:56;15.67;;;9.03;;
12110;SDS011;6119;52.372;8.990;2024-03-02T08:03:43;15.97;;;9.20;;
12110;SDS011;6119;52.372;8.990;2024-03-02T08:06:33;14.03;;;8.93;;
12110;SDS011;6119;52.372;8.990;2024-03-02T08:09:19;14.03;;;9.43;;
12110;SDS011;6119;52.372;8.990;2024-03-02T08:12:06;13.37;;;9.00;;
12110;SDS011;6119;52.372;8.990;2024-03-02T08:14:55;13.80;;;8.83;;
12110;SDS011;6119;52.372;8.990;2024-03-02T08:17:41;14.33;;;8.83;;
12110;SDS011;6119;52.372;8.990;2024-03-02T08:20:33;13.63;;;8.90;;
12110;SDS011;6119;52.372;8.990;2024-03-02T08:23:20;15.40;;;9.13;;
12110;SDS011;6119;52.372;8.990;2024-03-02T08:26:07;14.07;;;8.20;;
12110;SDS011;6119;52.372;8.990;2024-03-02T08:28:55;13.40;;;8.63;;
12110;SDS011;6119;52.372;8.990;2024-03-02T08:31:43;15.23;;;9.30;;
12110;SDS011;6119;52.372;8.990;2024-03-02T08:34:30;21.00;;;9.47;;
12110;SDS011;6119;52.372;8.990;2024-03-02T08:37:17;15.83;;;9.13;;
12110;SDS011;6119;52.372;8.990;2024-03-02T08:40:04;12.17;;;8.27;;
12110;SDS011;6119;52.372;8.990;2024-03-02T08:42:52;14.40;;;8.80;;
12110;SDS011;6119;52.372;8.990;2024-03-02T08:45:39;14.00;;;8.43;;
12110;SDS011;6119;52.372;8.990;2024-03-02T08:48:28;13.03;;;8.17;;
12110;SDS011;6119;52.372;8.990;2024-03-02T08:51:15;13.37;;;8.33;;
12110;SDS011;6119;52.372;8.990;2024-03-02T08:54:01;14.20;;;8.47;;
12110;SDS011;6119;52.372;8.990;2024-03-02T08:56:48;17.33;;;8.67;;
12110;SDS011;6119;52.372;8.990;2024-03-02T08:59:35;11.10;;;7.50;;
12110;SDS011;6119;52.372;8.990;2024-03-02T09:02:22;12.97;;;8.37;;
12110;SDS011;6119;52.372;8.990;2024-03-02T09:05:11;13.57;;;8.00;;
12110;SDS011;6119;52.372;8.990;2024-03-02T09:07:58;11.17;;;7.50;;
12110;SDS011;6119;52.372;8.990;2024-03-02T09:10:45;10.43;;;7.23;;
12110;SDS011;6119;52.372;8.990;2024-03-02T09:13:32;10.10;;;6.87;;
12110;SDS011;6119;52.372;8.990;2024-03-02T09:16:19;11.83;;;6.60;;
12110;SDS011;6119;52.372;8.990;2024-03-02T09:19:06;10.27;;;6.57;;
12110;SDS011;6119;52.372;8.990;2024-03-02T09:21:56;11.10;;;7.50;;
12110;SDS011;6119;52.372;8.990;2024-03-02T09:24:44;10.07;;;6.30;;
12110;SDS011;6119;52.372;8.990;2024-03-02T09:27:30;12.23;;;7.40;;
12110;SDS011;6119;52.372;8.990;2024-03-02T09:30:17;12.37;;;7.53;;
12110;SDS011;6119;52.372;8.990;2024-03-02T09:33:04;10.50;;;6.87;;
12110;SDS011;6119;52.372;8.990;2024-03-02T09:35:54;9.30;;;6.60;;
12110;SDS011;6119;52.372;8.990;2024-03-02T09:38:42;10.80;;;7.43;;
12110;SDS011;6119;52.372;8.990;2024-03-02T09:41:29;11.80;;;6.63;;
12110;SDS011;6119;52.372;8.990;2024-03-02T09:44:16;10.47;;;7.20;;
12110;SDS011;6119;52.372;8.990;2024-03-02T09:47:04;9.03;;;6.37;;
12110;SDS011;6119;52.372;8.990;2024-03-02T09:49:53;9.83;;;6.60;;
12110;SDS011;6119;52.372;8.990;2024-03-02T09:52:41;10.23;;;7.13;;
12110;SDS011;6119;52.372;8.990;2024-03-02T09:55:30;10.00;;;6.40;;
12110;SDS011;6119;52.372;8.990;2024-03-02T09:58:16;10.47;;;6.47;;
12110;SDS011;6119;52.372;8.990;2024-03-02T10:01:05;11.33;;;7.17;;
12110;SDS011;6119;52.372;8.990;2024-03-02T10:03:52;11.07;;;6.33;;
12110;SDS011;6119;52.372;8.990;2024-03-02T10:06:39;9.80;;;6.27;;
12110;SDS011;6119;52.372;8.990;2024-03-02T10:09:26;8.43;;;6.20;;
12110;SDS011;6119;52.372;8.990;2024-03-02T10:12:16;9.43;;;6.47;;
12110;SDS011;6119;52.372;8.990;2024-03-02T10:15:04;9.30;;;6.70;;
12110;SDS011;6119;52.372;8.990;2024-03-02T10:17:52;8.63;;;5.73;;
12110;SDS011;6119;52.372;8.990;2024-03-02T10:20:39;7.83;;;5.97;;
12110;SDS011;6119;52.372;8.990;2024-03-02T10:23:27;8.60;;;6.37;;
12110;SDS011;6119;52.372;8.990;2024-03-02T10:26:16;9.27;;;6.30;;
12110;SDS011;6119;52.372;8.990;2024-03-02T10:29:05;8.97;;;5.63;;
12110;SDS011;6119;52.372;8.990;2024-03-02T10:31:53;8.70;;;5.80;;
12110;SDS011;6119;52.372;8.990;2024-03-02T10:34:41;8.20;;;6.10;;
12110;SDS011;6119;52.372;8.990;2024-03-02T10:37:28;8.30;;;5.50;;
12110;SDS011;6119;52.372;8.990;2024-03-02T10:40:15;10.17;;;6.30;;
12110;SDS011;6119;52.372;8.990;2024-03-02T10:43:02;7.60;;;5.83;;
12110;SDS011;6119;52.372;8.990;2024-03-02T10:45:52;8.30;;;5.83;;
12110;SDS011;6119;52.372;8.990;2024-03-02T10:48:41;8.13;;;5.73;;
12110;SDS011;6119;52.372;8.990;2024-03-02T10:51:32;6.77;;;5.23;;
12110;SDS011;6119;52.372;8.990;2024-03-02T10:54:21;8.80;;;5.43;;
12110;SDS011;6119;52.372;8.990;2024-03-02T10:57:12;9.87;;;5.40;;
12110;SDS011;6119;52.372;8.990;2024-03-02T11:00:03;7.90;;;5.67;;
12110;SDS011;6119;52.372;8.990;2024-03-02T11:03:02;9.20;;;5.43;;
12110;SDS011;6119;52.372;8.990;2024-03-02T11:05:54;7.90;;;5.27;;
12110;SDS011;6119;52.372;8.990;2024-03-02T11:08:41;8.10;;;5.43;;
12110;SDS011;6119;52.372;8.990;2024-03-02T11:11:32;6.33;;;5.20;;
12110;SDS011;6119;52.372;8.990;2024-03-02T11:14:23;10.10;;;4.77;;
12110;SDS011;6119;52.372;8.990;2024-03-02T11:17:11;7.73;;;5.40;;
12110;SDS011;6119;52.372;8.990;2024-03-02T11:20:03;5.07;;;4.57;;
12110;SDS011;6119;52.372;8.990;2024-03-02T11:22:50;7.10;;;5.07;;
12110;SDS011;6119;52.372;8.990;2024-03-02T11:25:37;5.73;;;4.33;;
12110;SDS011;6119;52.372;8.990;2024-03-02T11:28:34;8.33;;;5.03;;
12110;SDS011;6119;52.372;8.990;2024-03-02T11:31:22;7.63;;;4.70;;
12110;SDS011;6119;52.372;8.990;2024-03-02T11:34:46;5.30;;;4.20;;
12110;SDS011;6119;52.372;8.990;2024-03-02T11:37:36;6.23;;;4.80;;
12110;SDS011;6119;52.372;8.990;2024-03-02T11:40:24;7.63;;;5.10;;
12110;SDS011;6119;52.372;8.990;2024-03-02T11:43:11;6.67;;;4.87;;
12110;SDS011;6119;52.372;8.990;2024-03-02T11:45:59;6.17;;;4.73;;
12110;SDS011;6119;52.372;8.990;2024-03-02T11:48:49;5.43;;;4.20;;
12110;SDS011;6119;52.372;8.990;2024-03-02T11:51:36;6.87;;;4.93;;
12110;SDS011;6119;52.372;8.990;2024-03-02T11:54:38;5.90;;;4.63;;
12110;SDS011;6119;52.372;8.990;2024-03-02T11:57:26;7.10;;;5.17;;
12110;SDS011;6119;52.372;8.990;2024-03-02T12:00:17;7.63;;;4.70;;
12110;SDS011;6119;52.372;8.990;2024-03-02T12:03:04;6.40;;;4.43;;
12110;SDS011;6119;52.372;8.990;2024-03-02T12:05:53;6.57;;;4.73;;
12110;SDS011;6119;52.372;8.990;2024-03-02T12:08:41;7.33;;;5.17;;
12110;SDS011;6119;52.372;8.990;2024-03-02T12:11:29;6.67;;;4.50;;
12110;SDS011;6119;52.372;8.990;2024-03-02T12:14:15;5.10;;;4.47;;
12110;SDS011;6119;52.372;8.990;2024-03-02T12:17:02;6.07;;;4.00;;
12110;SDS011;6119;52.372;8.990;2024-03-02T12:19:50;4.87;;;3.73;;
12110;SDS011;6119;52.372;8.990;2024-03-02T12:22:37;5.53;;;3.80;;
12110;SDS011;6119;52.372;8.990;2024-03-02T12:25:24;5.67;;;3.67;;
12110;SDS011;6119;52.372;8.990;2024-03-02T12:28:13;6.33;;;4.40;;
12110;SDS011;6119;52.372;8.990;2024-03-02T12:31:00;8.73;;;4.27;;
12110;SDS011;6119;52.372;8.990;2024-03-02T12:33:47;6.80;;;4.40;;
12110;SDS011;6119;52.372;8.990;2024-03-02T12:36:36;4.37;;;3.73;;
12110;SDS011;6119;52.372;8.990;2024-03-02T12:39:24;6.73;;;3.40;;
12110;SDS011;6119;52.372;8.990;2024-03-02T12:42:12;4.70;;;3.23;;
12110;SDS011;6119;52.372;8.990;2024-03-02T12:45:00;5.23;;;3.30;;
12110;SDS011;6119;52.372;8.990;2024-03-02T12:47:48;4.73;;;2.80;;
12110;SDS011;6119;52.372;8.990;2024-03-02T12:50:35;4.53;;;3.33;;
12110;SDS011;6119;52.372;8.990;2024-03-02T12:53:22;5.63;;;3.93;;
12110;SDS011;6119;52.372;8.990;2024-03-02T12:56:09;4.73;;;3.43;;
12110;SDS011;6119;52.372;8.990;2024-03-02T12:58:57;5.17;;;3.60;;
12110;SDS011;6119;52.372;8.990;2024-03-02T13:01:51;7.20;;;3.90;;
12110;SDS011;6119;52.372;8.990;2024-03-02T13:04:38;5.07;;;3.97;;
12110;SDS011;6119;52.372;8.990;2024-03-02T13:07:26;5.00;;;3.73;;
12110;SDS011;6119;52.372;8.990;2024-03-02T13:10:13;7.40;;;4.10;;
12110;SDS011;6119;52.372;8.990;2024-03-02T13:13:00;4.27;;;3.13;;
12110;SDS011;6119;52.372;8.990;2024-03-02T13:15:47;6.60;;;3.87;;
12110;SDS011;6119;52.372;8.990;2024-03-02T13:18:35;4.47;;;3.50;;
12110;SDS011;6119;52.372;8.990;2024-03-02T13:21:22;4.53;;;3.60;;
12110;SDS011;6119;52.372;8.990;2024-03-02T13:24:09;5.03;;;3.27;;
12110;SDS011;6119;52.372;8.990;2024-03-02T13:26:55;4.67;;;3.27;;
12110;SDS011;6119;52.372;8.990;2024-03-02T13:29:43;6.90;;;3.57;;
12110;SDS011;6119;52.372;8.990;2024-03-02T13:32:29;4.30;;;3.60;;
12110;SDS011;6119;52.372;8.990;2024-03-02T13:35:17;6.67;;;3.60;;
12110;SDS011;6119;52.372;8.990;2024-03-02T13:38:04;4.60;;;3.40;;
12110;SDS011;6119;52.372;8.990;2024-03-02T13:40:51;4.77;;;3.13;;
12110;SDS011;6119;52.372;8.990;2024-03-02T13:43:37;3.70;;;3.00;;
12110;SDS011;6119;52.372;8.990;2024-03-02T13:46:25;3.13;;;2.83;;
12110;SDS011;6119;52.372;8.990;2024-03-02T13:49:11;3.53;;;3.00;;
12110;SDS011;6119;52.372;8.990;2024-03-02T13:51:59;5.43;;;2.90;;
12110;SDS011;6119;52.372;8.990;2024-03-02T13:54:48;4.07;;;3.10;;
12110;SDS011;6119;52.372;8.990;2024-03-02T13:57:37;3.40;;;2.50;;
12110;SDS011;6119;52.372;8.990;2024-03-02T14:00:24;3.33;;;3.00;;
12110;SDS011;6119;52.372;8.990;2024-03-02T14:03:11;3.27;;;2.77;;
12110;SDS011;6119;52.372;8.990;2024-03-02T14:05:57;4.40;;;2.73;;
12110;SDS011;6119;52.372;8.990;2024-03-02T14:08:46;5.37;;;3.00;;
12110;SDS011;6119;52.372;8.990;2024-03-02T14:11:34;3.33;;;2.63;;
12110;SDS011;6119;52.372;8.990;2024-03-02T14:14:20;3.27;;;2.57;;
12110;SDS011;6119;52.372;8.990;2024-03-02T14:17:07;3.57;;;2.67;;
12110;SDS011;6119;52.372;8.990;2024-03-02T14:19:59;3.37;;;2.63;;
12110;SDS011;6119;52.372;8.990;2024-03-02T14:22:46;2.93;;;2.33;;
12110;SDS011;6119;52.372;8.990;2024-03-02T14:25:35;4.40;;;2.80;;
12110;SDS011;6119;52.372;8.990;2024-03-02T14:28:22;3.20;;;2.53;;
12110;SDS011;6119;52.372;8.990;2024-03-02T14:31:28;3.93;;;2.93;;
12110;SDS011;6119;52.372;8.990;2024-03-02T14:34:16;3.20;;;2.40;;
12110;SDS011;6119;52.372;8.990;2024-03-02T14:37:03;2.53;;;2.33;;
12110;SDS011;6119;52.372;8.990;2024-03-02T14:39:49;4.43;;;2.60;;
12110;SDS011;6119;52.372;8.990;2024-03-02T14:42:38;4.60;;;2.50;;
12110;SDS011;6119;52.372;8.990;2024-03-02T14:45:25;2.90;;;2.33;;
12110;SDS011;6119;52.372;8.990;2024-03-02T14:48:12;3.10;;;2.10;;
12110;SDS011;6119;52.372;8.990;2024-03-02T14:50:59;3.47;;;2.20;;
12110;SDS011;6119;52.372;8.990;2024-03-02T14:53:46;2.80;;;2.47;;
12110;SDS011;6119;52.372;8.990;2024-03-02T14:56:33;2.67;;;2.23;;
12110;SDS011;6119;52.372;8.990;2024-03-02T14:59:21;1.87;;;1.77;;
12110;SDS011;6119;52.372;8.990;2024-03-02T15:02:08;2.43;;;2.10;;
12110;SDS011;6119;52.372;8.990;2024-03-02T15:04:55;1.90;;;1.70;;
12110;SDS011;6119;52.372;8.990;2024-03-02T15:07:42;1.63;;;1.53;;
12110;SDS011;6119;52.372;8.990;2024-03-02T15:10:28;2.13;;;1.80;;
12110;SDS011;6119;52.372;8.990;2024-03-02T15:13:15;1.70;;;1.60;;
12110;SDS011;6119;52.372;8.990;2024-03-02T15:16:03;3.03;;;1.67;;
12110;SDS011;6119;52.372;8.990;2024-03-02T15:18:50;2.60;;;1.97;;
12110;SDS011;6119;52.372;8.990;2024-03-02T15:21:37;2.47;;;1.60;;
12110;SDS011;6119;52.372;8.990;2024-03-02T15:24:25;2.77;;;1.50;;
12110;SDS011;6119;52.372;8.990;2024-03-02T15:27:11;2.67;;;1.57;;
12110;SDS011;6119;52.372;8.990;2024-03-02T15:29:58;2.10;;;1.63;;
12110;SDS011;6119;52.372;8.990;2024-03-02T15:32:47;2.00;;;1.73;;
12110;SDS011;6119;52.372;8.990;2024-03-02T15:35:33;2.23;;;2.03;;
12110;SDS011;6119;52.372;8.990;2024-03-02T15:38:20;1.70;;;1.60;;
12110;SDS011;6119;52.372;8.990;2024-03-02T15:41:17;1.77;;;1.60;;
12110;SDS011;6119;52.372;8.990;2024-03-02T15:44:04;2.80;;;1.60;;
12110;SDS011;6119;52.372;8.990;2024-03-02T15:46:52;2.40;;;1.73;;
12110;SDS011;6119;52.372;8.990;2024-03-02T15:49:40;1.90;;;1.47;;
12110;SDS011;6119;52.372;8.990;2024-03-02T15:52:27;2.43;;;1.70;;
12110;SDS011;6119;52.372;8.990;2024-03-02T15:55:13;7.80;;;1.40;;
12110;SDS011;6119;52.372;8.990;2024-03-02T15:58:00;2.13;;;1.40;;
12110;SDS011;6119;52.372;8.990;2024-03-02T16:00:49;4.17;;;1.20;;
12110;SDS011;6119;52.372;8.990;2024-03-02T16:03:36;1.53;;;1.30;;
12110;SDS011;6119;52.372;8.990;2024-03-02T16:06:24;2.60;;;1.30;;
12110;SDS011;6119;52.372;8.990;2024-03-02T16:09:11;1.40;;;1.27;;
12110;SDS011;6119;52.372;8.990;2024-03-02T16:11:57;2.03;;;1.60;;
12110;SDS011;6119;52.372;8.990;2024-03-02T16:14:44;3.13;;;1.50;;
12110;SDS011;6119;52.372;8.990;2024-03-02T16:17:30;2.80;;;1.43;;
12110;SDS011;6119;52.372;8.990;2024-03-02T16:20:17;1.10;;;1.10;;
12110;SDS011;6119;52.372;8.990;2024-03-02T16:23:05;1.20;;;1.10;;
12110;SDS011;6119;52.372;8.990;2024-03-02T16:25:52;1.50;;;1.40;;
12110;SDS011;6119;52.372;8.990;2024-03-02T16:28:38;1.77;;;1.47;;
12110;SDS011;6119;52.372;8.990;2024-03-02T16:31:25;2.50;;;1.40;;
12110;SDS011;6119;52.372;8.990;2024-03-02T16:34:12;1.40;;;1.30;;
12110;SDS011;6119;52.372;8.990;2024-03-02T16:36:59;1.90;;;1.43;;
12110;SDS011;6119;52.372;8.990;2024-03-02T16:39:49;2.60;;;2.30;;
12110;SDS011;6119;52.372;8.990;2024-03-02T16:42:37;9.77;;;4.93;;
12110;SDS011;6119;52.372;8.990;2024-03-02T16:45:23;3.70;;;2.27;;
12110;SDS011;6119;52.372;8.990;2024-03-02T16:48:10;2.33;;;1.63;;
12110;SDS011;6119;52.372;8.990;2024-03-02T16:50:57;1.77;;;1.60;;
12110;SDS011;6119;52.372;8.990;2024-03-02T16:53:43;1.50;;;1.40;;
12110;SDS011;6119;52.372;8.990;2024-03-02T16:56:38;2.97;;;1.23;;
12110;SDS011;6119;52.372;8.990;2024-03-02T16:59:25;3.63;;;1.20;;
12110;SDS011;6119;52.372;8.990;2024-03-02T17:02:12;1.63;;;1.33;;